statement low priority SPECIAL AIR QUALITY STATEMENT

Thunder radar more information blitzortung!


Rain radar more information rain snow radar


Equipment we use:

Davis VP2

Weather Display

BareMetal


Nearby METAR Reports

   
CYAZ - Tofino, BC
Updated: 08-19-2018 14:00
  
  
   Wind: Calm
Wind: Calm
CYAZ 192100Z CCA 18006KT 10SM PRFG FEW001 OVC220 14/13 A3009 RMK SF2CI6 VIS E-SW 1/2 SLP192
CYHE - Hope,BC
Updated: 08-19-2018 14:00
Haze, Overcast  
Haze, Overcast  
   Wind: East 9.3 km/h
Wind: East 9.3 km/h
Temperature: 27°C
Dew Point: 5°C
Humidity: 24%
Barometer: 1016.9 hPa
Clouds: Overcast
Visibility: 2 km
Cloud details: Overcast 731.5 m
CYHE 192100Z AUTO 09005KT 1SM HZ OVC024 27/05 A3003 RMK SLP171 DENSITY ALT 1400FT
CYYT - St. John's, NL
Updated: 08-19-2018 14:00
Light Rain, Mostly Cloudy  
Light Rain, Mostly Cloudy  
   Wind: NE 14.8 km/h
Wind: NE 14.8 km/h
Temperature: 14°C
Dew Point: 14°C
Humidity: 100%
Barometer: 1017.3 hPa
Clouds: Mostly Cloudy
Visibility: 24 km
Cloud details: Mostly Cloudy 182.9 m
CYYT 192100Z 05008KT 15SM -RA BKN006 14/14 A3004 RMK ST7 SLP175

Script developed by  Saratoga-weather.org Adapted for the template by  Weerstation Leuven